Terminal Aerodrome Forecast
Issued by NWS

Home | Current Version | Previous Version | Graphics & Text | Print | Product List | Glossary On
Versions: 1 2 3 4 5 6 7 8 9 10 11 12 13 14 15 16 17 18 19 20 21 22 23
245
FTUS43 KTOP 240412 AAA
TAFMHK
TAF AMD
KMHK 240412Z 2404/2424 11009KT 5SM BR SKC
     FM240800 15011KT P6SM SCT070
     FM241600 18014G22KT P6SM SCT070
     FM241900 22015G23KT P6SM SCT080
     FM242100 25013KT P6SM SCT070=

USA.gov is the U.S. government's official web portal to all federal, state and local government web resources and services.